Time;durP1;ratioP1;P1;durP2;ratioP2;P2;SDS_P1;SDS_P2;PMS_P1;PMS_P2;Temp;Humidity;BMP_temperature;BMP_pressure;BME280_temperature;BME280_humidity;BME280_pressure;Samples;Min_cycle;Max_cycle;Signal;HPM_P1;HPM_P2
2022/06/25 00:00:04;;;;;;;;;15.00;13.80;;;;;27.42;36.05;98854.38;5088959;28;8914;-76
2022/06/25 00:02:54;;;;;;;;;14.40;13.60;;;;;27.46;36.18;98862.19;5088750;28;8873;-76
2022/06/25 00:05:29;;;;;;;;;14.20;13.40;;;;;27.42;36.29;98856.22;5055188;28;8869;-76
2022/06/25 00:07:59;;;;;;;;;15.60;14.60;;;;;27.44;36.28;98859.63;5059943;28;8962;-77
2022/06/25 00:10:28;;;;;;;;;17.20;16.20;;;;;27.36;36.61;98851.38;5070218;28;8865;-76
2022/06/25 00:12:56;;;;;;;;;15.60;14.00;;;;;27.32;36.96;98855.28;5070615;28;9008;-74
2022/06/25 00:15:25;;;;;;;;;14.40;14.40;;;;;27.32;36.72;98853.44;5071361;28;8842;-76
2022/06/25 00:17:53;;;;;;;;;14.60;14.60;;;;;27.32;36.63;98858.78;5071399;28;8865;-75
2022/06/25 00:20:22;;;;;;;;;13.80;13.80;;;;;27.31;36.54;98862.44;5071353;28;8854;-74
2022/06/25 00:22:51;;;;;;;;;16.60;14.40;;;;;27.29;36.93;98866.22;5075388;28;8828;-74
2022/06/25 00:25:21;;;;;;;;;15.60;15.60;;;;;27.30;37.21;98867.94;5091989;28;8856;-74
2022/06/25 00:27:49;;;;;;;;;15.80;15.20;;;;;27.31;36.99;98875.81;5092615;28;8855;-76
2022/06/25 00:30:18;;;;;;;;;17.00;15.00;;;;;27.30;36.88;98881.31;5087420;28;8835;-74
2022/06/25 00:32:47;;;;;;;;;13.80;12.60;;;;;27.32;37.44;98884.72;5052571;28;8850;-76
2022/06/25 00:35:16;;;;;;;;;10.20;10.20;;;;;27.32;37.34;98885.56;5036054;28;8866;-74
2022/06/25 00:37:44;;;;;;;;;14.60;13.20;;;;;27.33;37.08;98889.09;5035874;28;8916;-77
2022/06/25 00:40:13;;;;;;;;;14.40;13.60;;;;;27.32;37.13;98884.72;5004525;28;8852;-76
2022/06/25 00:42:44;;;;;;;;;16.40;13.40;;;;;27.32;37.25;98880.22;5084980;28;8858;-77
2022/06/25 00:45:13;;;;;;;;;12.60;12.60;;;;;27.30;37.08;98887.53;5060310;28;9659;-77
2022/06/25 00:47:44;;;;;;;;;14.80;14.80;;;;;27.32;37.36;98885.56;5048268;28;8867;-77
2022/06/25 00:50:12;;;;;;;;;16.00;15.20;;;;;27.32;37.09;98890.09;5047915;28;8920;-80
2022/06/25 00:52:43;;;;;;;;;15.00;15.00;;;;;27.34;37.61;98893.50;5031460;28;8967;-77
2022/06/25 00:55:19;;;;;;;;;16.00;15.20;;;;;27.37;37.49;98890.53;5047262;28;8900;-78
2022/06/25 00:57:51;;;;;;;;;16.40;16.40;;;;;27.28;37.56;98888.59;5046833;28;8854;-73
2022/06/25 01:00:19;;;;;;;;;14.80;14.00;;;;;27.27;37.76;98886.91;5032076;28;8866;-79
2022/06/25 01:02:48;;;;;;;;;14.20;14.20;;;;;27.25;37.73;98888.84;5088237;28;8843;-75
2022/06/25 01:05:18;;;;;;;;;14.80;13.80;;;;;27.24;37.75;98879.97;5051096;28;8854;-75
2022/06/25 01:07:48;;;;;;;;;14.80;14.20;;;;;27.21;38.05;98890.91;5051834;28;8861;-77
2022/06/25 01:10:17;;;;;;;;;14.40;14.00;;;;;27.17;37.66;98887.63;5052409;28;8877;-74
2022/06/25 01:12:46;;;;;;;;;17.40;16.40;;;;;27.12;38.09;98875.56;5069552;28;8839;-75
2022/06/25 01:15:18;;;;;;;;;13.40;13.00;;;;;27.10;38.12;98880.19;5068655;28;8932;-74
2022/06/25 01:17:49;;;;;;;;;14.80;14.80;;;;;27.07;38.12;98883.97;5068739;28;8858;-75
2022/06/25 01:20:20;;;;;;;;;13.60;13.60;;;;;27.02;37.94;98878.97;5063284;28;9995;-75
2022/06/25 01:22:50;;;;;;;;;15.40;12.80;;;;;27.01;37.95;98876.41;5068307;28;8936;-74
2022/06/25 01:25:19;;;;;;;;;11.40;11.00;;;;;26.96;37.79;98871.44;5069637;28;8854;-76
2022/06/25 01:27:48;;;;;;;;;12.00;12.00;;;;;26.94;38.34;98881.44;5068220;28;8854;-75
2022/06/25 01:30:17;;;;;;;;;14.00;14.00;;;;;26.95;38.42;98876.91;5068941;28;8838;-75
2022/06/25 01:32:46;;;;;;;;;15.20;15.20;;;;;26.92;38.22;98882.50;5068373;28;8850;-75
2022/06/25 01:35:17;;;;;;;;;13.20;13.20;;;;;26.88;38.40;98875.69;5069904;28;8854;-76
2022/06/25 01:37:46;;;;;;;;;13.00;13.00;;;;;26.88;39.17;98881.91;5068105;28;8940;-73
2022/06/25 01:40:16;;;;;;;;;17.00;16.20;;;;;26.87;39.57;98879.34;5051290;28;8850;-76
2022/06/25 01:42:59;;;;;;;;;13.40;13.40;;;;;26.83;39.54;98879.59;5050307;28;9607;-76
2022/06/25 01:45:30;;;;;;;;;21.50;19.75;;;;;26.83;39.78;98878.75;5082979;28;8869;-76
2022/06/25 01:48:00;;;;;;;;;15.20;15.20;;;;;26.78;39.64;98878.25;5089663;28;8847;-76
2022/06/25 01:50:29;;;;;;;;;18.60;18.00;;;;;26.72;39.18;98871.53;5117147;27;8857;-74
2022/06/25 01:52:58;;;;;;;;;15.00;15.00;;;;;26.67;38.80;98881.75;5066823;28;8844;-73
2022/06/25 01:55:28;;;;;;;;;16.20;15.80;;;;;26.61;40.12;98877.72;5066351;28;8898;-75
2022/06/25 01:57:57;;;;;;;;;17.20;17.20;;;;;26.49;40.69;98880.50;5066208;28;8836;-74
2022/06/25 02:00:29;;;;;;;;;17.20;17.20;;;;;26.36;40.98;98880.56;5066934;28;8836;-74
2022/06/25 02:03:04;;;;;;;;;15.80;15.40;;;;;26.32;41.39;98879.94;5066353;28;8887;-74
2022/06/25 02:08:23;;;;;;;;;18.00;17.80;;;;;26.14;42.50;98900.91;5071757;28;8836;-75
2022/06/25 02:10:53;;;;;;;;;18.00;17.60;;;;;25.65;44.03;98910.72;5060643;28;8856;-79
2022/06/25 02:13:22;;;;;;;;;20.40;18.80;;;;;25.51;44.55;98908.19;5083136;28;8867;-75
2022/06/25 02:15:52;;;;;;;;;15.75;15.75;;;;;25.55;43.45;98906.16;5069469;28;8853;-73
2022/06/25 02:18:21;;;;;;;;;17.00;16.20;;;;;25.44;43.47;98904.25;5036420;28;8845;-76
2022/06/25 02:20:50;;;;;;;;;15.40;15.40;;;;;25.47;43.71;98901.38;5086553;28;8846;-78
2022/06/25 02:23:19;;;;;;;;;16.00;14.40;;;;;25.52;43.47;98903.69;5050387;28;8862;-74
2022/06/25 02:25:48;;;;;;;;;19.20;19.20;;;;;25.59;43.70;98905.81;5067847;28;8882;-75
2022/06/25 02:28:19;;;;;;;;;17.00;17.00;;;;;25.63;43.29;98901.97;5069032;28;8944;-75
2022/06/25 02:30:47;;;;;;;;;15.60;15.60;;;;;25.66;43.24;98896.41;5051093;28;8858;-72
2022/06/25 02:33:17;;;;;;;;;16.80;15.40;;;;;25.70;42.90;98893.50;5101299;28;8854;-75
2022/06/25 02:35:46;;;;;;;;;14.40;14.20;;;;;25.68;42.64;98894.47;5068334;28;8862;-73
2022/06/25 02:38:17;;;;;;;;;19.60;19.00;;;;;25.70;43.21;98901.53;5101710;28;9612;-75
2022/06/25 02:40:51;;;;;;;;;16.00;15.20;;;;;25.69;42.76;98908.69;5084863;28;8850;-73
2022/06/25 02:43:22;;;;;;;;;19.80;19.20;;;;;25.67;43.39;98899.91;5084066;28;8838;-74
2022/06/25 02:46:07;;;;;;;;;17.00;15.60;;;;;25.67;43.10;98900.78;5083951;28;8865;-77
2022/06/25 02:48:36;;;;;;;;;17.60;17.00;;;;;25.67;43.79;98894.56;5049364;28;8880;-74
2022/06/25 02:51:05;;;;;;;;;13.80;13.80;;;;;25.66;43.12;98898.22;5050787;28;8869;-76
2022/06/25 02:53:35;;;;;;;;;14.00;14.00;;;;;25.67;43.24;98900.78;5067210;28;8971;-74
2022/06/25 02:58:56;;;;;;;;;13.40;12.40;;;;;25.67;42.14;98900.78;5083897;28;8850;-75
2022/06/25 03:01:46;;;;;;;;;17.40;17.40;;;;;25.68;43.00;98901.63;5066980;28;8858;-77
2022/06/25 03:04:16;;;;;;;;;14.80;14.80;;;;;25.68;43.00;98906.97;5083043;28;9454;-74
2022/06/25 03:06:47;;;;;;;;;12.80;12.80;;;;;25.63;42.96;98907.31;5028772;28;8818;-75
2022/06/25 03:09:16;;;;;;;;;17.00;17.00;;;;;25.65;43.28;98912.53;5029241;28;9611;-79
2022/06/25 03:11:46;;;;;;;;;18.40;17.40;;;;;25.65;44.48;98917.88;5029069;28;8846;-74
2022/06/25 03:14:17;;;;;;;;;14.40;14.40;;;;;25.64;42.84;98918.84;5045685;28;8857;-75
2022/06/25 03:16:46;;;;;;;;;15.40;15.20;;;;;25.60;42.24;98928.06;5025641;28;8946;-74
2022/06/25 03:19:16;;;;;;;;;25.75;25.50;;;;;25.57;42.12;98930.94;5025449;28;8867;-73
2022/06/25 03:21:46;;;;;;;;;50.50;41.25;;;;;25.57;41.83;98936.28;5045621;28;8850;-74
2022/06/25 03:24:16;;;;;;;;;15.00;15.00;;;;;25.60;42.07;98938.72;5029048;28;8846;-73
2022/06/25 03:26:45;;;;;;;;;18.00;18.00;;;;;25.62;42.83;98934.97;5031592;28;8842;-77
2022/06/25 03:29:14;;;;;;;;;21.20;20.20;;;;;25.66;42.45;98933.78;5049502;28;8842;-73
2022/06/25 03:31:44;;;;;;;;;15.80;15.80;;;;;25.77;42.34;98929.50;5032833;28;9041;-76
2022/06/25 03:34:33;;;;;;;;;17.60;14.60;;;;;25.82;41.93;98924.63;4989614;28;8919;-74
2022/06/25 03:37:02;;;;;;;;;14.40;14.40;;;;;25.89;41.51;98925.91;4979313;28;8856;-74
2022/06/25 03:39:30;;;;;;;;;16.00;16.00;;;;;25.93;41.65;98929.22;5032240;28;8955;-75
2022/06/25 03:41:59;;;;;;;;;19.40;19.40;;;;;25.99;42.63;98924.31;5045126;28;9606;-76
2022/06/25 03:44:38;;;;;;;;;21.20;20.20;;;;;26.02;42.95;98920.53;5012381;28;8852;-75
2022/06/25 03:47:24;;;;;;;;;36.00;32.50;;;;;26.08;42.41;98912.06;5045103;28;8948;-75
2022/06/25 03:49:53;;;;;;;;;12.40;12.40;;;;;26.15;42.69;98912.47;5012496;28;9595;-75
2022/06/25 03:52:25;;;;;;;;;16.20;15.20;;;;;26.18;42.73;98912.22;5012064;28;8868;-75
2022/06/25 03:54:54;;;;;;;;;15.20;15.20;;;;;26.14;43.26;98914.25;5027880;28;8859;-75
2022/06/25 03:57:24;;;;;;;;;19.20;18.40;;;;;26.13;43.43;98914.41;5028614;28;8872;-74
2022/06/25 04:00:14;;;;;;;;;18.80;18.20;;;;;25.84;45.27;98917.38;5028400;28;8872;-75
2022/06/25 04:02:55;;;;;;;;;18.40;18.40;;;;;25.82;44.42;98921.97;5012024;28;8856;-74
2022/06/25 04:05:30;;;;;;;;;20.80;19.00;;;;;25.87;44.26;98923.34;5028186;28;8869;-75
2022/06/25 04:08:08;;;;;;;;;19.80;18.60;;;;;25.99;44.40;98926.09;5028411;28;8887;-74
2022/06/25 04:10:37;;;;;;;;;17.80;16.20;;;;;26.12;43.43;98918.03;5011239;28;8848;-76
2022/06/25 04:13:06;;;;;;;;;20.20;20.20;;;;;26.25;43.05;98930.34;5025026;28;8862;-75
2022/06/25 04:15:35;;;;;;;;;18.20;18.20;;;;;26.34;43.77;98934.16;5053478;28;8959;-74
2022/06/25 04:18:06;;;;;;;;;15.80;15.80;;;;;26.39;41.57;98928.44;5069627;28;8939;-75
2022/06/25 04:20:35;;;;;;;;;14.60;13.20;;;;;26.41;42.38;98932.72;5048046;28;8858;-74
2022/06/25 04:23:05;;;;;;;;;19.20;19.20;;;;;26.45;43.46;98934.19;4999162;28;8973;-74
2022/06/25 04:25:34;;;;;;;;;19.20;19.20;;;;;26.41;43.78;98926.53;5047401;28;8872;-75
2022/06/25 04:30:52;;;;;;;;;22.00;20.40;;;;;26.54;43.05;98927.31;5031460;28;8856;-76
2022/06/25 04:33:22;;;;;;;;;16.60;16.40;;;;;26.48;43.84;98929.56;5000640;28;8969;-75
2022/06/25 04:36:05;;;;;;;;;17.20;16.80;;;;;26.41;43.88;98939.91;5031590;28;8849;-75
2022/06/25 04:38:47;;;;;;;;;21.00;19.40;;;;;26.45;43.62;98950.22;4988185;28;8837;-77
2022/06/25 04:41:17;;;;;;;;;50.50;41.75;;;;;26.36;43.85;98945.59;5031708;28;8853;-74
2022/06/25 04:43:49;;;;;;;;;80.25;71.50;;;;;26.48;44.04;98945.63;4989111;28;8914;-74
2022/06/25 04:46:23;;;;;;;;;17.25;13.75;;;;;26.62;43.71;98948.97;4955941;28;10968;-75
2022/06/25 04:48:55;;;;;;;;;21.20;20.20;;;;;26.76;43.32;98952.41;4972380;28;8853;-76
2022/06/25 04:51:29;;;;;;;;;20.00;19.00;;;;;26.90;42.88;98954.88;4992007;28;8888;-73
2022/06/25 04:53:58;;;;;;;;;17.50;17.25;;;;;27.08;43.05;98949.91;4988010;28;8873;-74
2022/06/25 04:56:36;;;;;;;;;20.50;19.00;;;;;27.28;42.70;98948.38;4988053;28;8896;-75
2022/06/25 04:59:06;;;;;;;;;21.00;20.25;;;;;27.43;42.78;98940.94;4997302;28;8975;-74
2022/06/25 05:01:54;;;;;;;;;22.75;21.25;;;;;27.57;42.30;98942.50;5002746;28;8953;-75
2022/06/25 05:04:33;;;;;;;;;21.50;21.00;;;;;27.74;42.05;98955.38;5007739;28;8875;-76
2022/06/25 05:07:02;;;;;;;;;21.50;20.75;;;;;27.92;41.83;98954.88;5047143;28;8882;-75
2022/06/25 05:09:31;;;;;;;;;19.25;18.00;;;;;28.05;41.48;98949.38;5031073;28;8870;-74
2022/06/25 05:12:00;;;;;;;;;17.80;17.60;;;;;28.21;40.76;98952.50;5030025;28;8998;-74
2022/06/25 05:14:30;;;;;;;;;19.00;19.00;;;;;28.36;41.10;98955.72;4987485;28;8826;-73
2022/06/25 05:16:58;;;;;;;;;17.20;17.20;;;;;28.50;40.93;98957.22;5066860;28;8982;-75
2022/06/25 05:19:28;;;;;;;;;13.75;13.75;;;;;28.65;39.47;98965.84;5061985;28;8961;-74
2022/06/25 05:21:59;;;;;;;;;15.20;14.60;;;;;28.73;38.19;98966.91;5013958;28;8856;-76
2022/06/25 05:24:28;;;;;;;;;17.75;17.75;;;;;28.89;37.98;98949.50;4997870;28;8849;-75
2022/06/25 05:26:57;;;;;;;;;12.40;11.40;;;;;29.02;37.58;98951.94;5046466;28;8891;-77
2022/06/25 05:29:25;;;;;;;;;11.60;11.60;;;;;29.15;37.47;98961.53;5030448;28;8945;-76
2022/06/25 05:31:59;;;;;;;;;12.00;12.00;;;;;29.29;36.63;98952.25;5062295;28;8962;-74
2022/06/25 05:34:28;;;;;;;;;12.80;12.60;;;;;29.40;35.47;98954.00;5090321;28;8839;-76
2022/06/25 05:36:57;;;;;;;;;15.75;15.75;;;;;29.50;36.77;98956.72;5070019;28;8924;-76
2022/06/25 05:39:27;;;;;;;;;22.00;22.00;;;;;29.46;37.84;98966.03;5084933;28;8870;-74
2022/06/25 05:41:55;;;;;;;;;19.50;18.25;;;;;29.58;38.20;98956.88;5067860;28;8947;-76
2022/06/25 05:44:24;;;;;;;;;22.50;19.50;;;;;29.72;38.20;98967.25;5068636;28;8854;-74
2022/06/25 05:46:53;;;;;;;;;16.00;15.00;;;;;29.83;37.27;98968.16;5075845;28;8868;-76
2022/06/25 05:49:22;;;;;;;;;16.75;16.25;;;;;29.85;37.37;98961.66;5068545;28;8874;-74
2022/06/25 05:51:51;;;;;;;;;17.00;15.80;;;;;29.94;34.99;98965.34;5068602;28;8851;-80
2022/06/25 05:54:19;;;;;;;;;19.75;18.25;;;;;29.98;36.16;98968.59;5068792;28;8904;-78
2022/06/25 05:56:50;;;;;;;;;18.25;18.00;;;;;30.15;36.61;98969.75;5049822;28;8847;-75
2022/06/25 05:59:18;;;;;;;;;16.75;16.25;;;;;30.30;36.56;98960.28;5069021;28;8842;-76
2022/06/25 06:01:47;;;;;;;;;12.00;12.00;;;;;30.00;34.57;98969.31;5078309;28;8844;-74
2022/06/25 06:04:15;;;;;;;;;18.00;17.25;;;;;30.26;35.79;98969.63;5088114;28;8875;-74
2022/06/25 06:06:44;;;;;;;;;13.00;13.00;;;;;30.47;34.77;98972.22;5084552;28;8820;-76
2022/06/25 06:09:12;;;;;;;;;15.00;13.40;;;;;30.64;34.12;98979.59;5080144;28;8835;-75
2022/06/25 06:11:41;;;;;;;;;13.60;13.60;;;;;30.76;33.79;98974.91;5068176;28;8859;-75
2022/06/25 06:14:11;;;;;;;;;9.00;9.00;;;;;30.85;32.49;98981.25;5067108;28;8862;-73
2022/06/25 06:16:39;;;;;;;;;12.40;11.40;;;;;30.96;32.86;98978.41;5083079;28;8962;-72
2022/06/25 06:19:08;;;;;;;;;11.20;10.80;;;;;31.14;32.08;98975.00;5086464;28;8843;-72
2022/06/25 06:21:37;;;;;;;;;12.50;12.50;;;;;31.25;32.14;98980.19;5075881;28;8847;-73
2022/06/25 06:24:06;;;;;;;;;12.50;12.50;;;;;31.44;32.73;98990.06;5067913;28;8974;-71
2022/06/25 06:26:35;;;;;;;;;11.80;11.80;;;;;31.60;31.11;98992.97;5070201;28;8859;-72
2022/06/25 06:29:04;;;;;;;;;13.00;13.00;;;;;31.77;31.91;98998.56;5069331;28;9644;-73
2022/06/25 06:31:34;;;;;;;;;11.25;11.25;;;;;31.88;31.07;98995.69;5067136;28;8870;-72
2022/06/25 06:34:03;;;;;;;;;16.00;16.00;;;;;30.94;32.32;99001.09;5082360;28;8911;-74
2022/06/25 06:36:32;;;;;;;;;17.00;17.00;;;;;30.55;33.52;99001.09;5068249;28;8863;-72
2022/06/25 06:39:01;;;;;;;;;12.20;12.20;;;;;30.82;32.33;99008.47;5066835;28;8967;-73
2022/06/25 06:41:29;;;;;;;;;16.75;15.50;;;;;31.01;31.94;99013.00;5066729;28;9656;-72
2022/06/25 06:43:58;;;;;;;;;11.80;11.80;;;;;31.23;32.62;99017.19;5066881;28;8838;-73
2022/06/25 06:46:26;;;;;;;;;13.80;12.00;;;;;31.42;32.40;99016.31;5067155;28;8944;-74
2022/06/25 06:48:56;;;;;;;;;12.40;12.40;;;;;31.65;32.34;99008.72;5080667;28;8850;-73
2022/06/25 06:51:25;;;;;;;;;15.50;15.50;;;;;31.64;33.15;99010.53;5048113;28;8920;-72
2022/06/25 06:53:53;;;;;;;;;16.75;16.75;;;;;31.78;33.26;99014.63;5066533;28;8864;-73
2022/06/25 06:56:22;;;;;;;;;16.50;16.00;;;;;32.00;32.75;99017.88;5067201;28;8846;-72
2022/06/25 06:58:50;;;;;;;;;14.50;13.25;;;;;32.21;32.73;99021.22;5067371;28;8882;-71
2022/06/25 07:01:19;;;;;;;;;18.75;18.75;;;;;32.39;32.11;99021.22;5068657;28;8878;-72
2022/06/25 07:03:47;;;;;;;;;16.25;14.75;;;;;32.44;32.35;99023.47;5085624;28;8830;-71
2022/06/25 07:06:17;;;;;;;;;15.50;15.50;;;;;32.61;32.36;99030.75;5087636;28;8887;-72
2022/06/25 07:08:46;;;;;;;;;16.00;15.00;;;;;32.77;31.70;99019.22;5090300;28;9627;-74
2022/06/25 07:11:30;;;;;;;;;21.50;19.25;;;;;32.48;31.97;99027.53;5090445;28;9569;-71
2022/06/25 07:14:00;;;;;;;;;42.25;34.25;;;;;32.52;32.54;99028.94;5089770;28;8867;-73
2022/06/25 07:16:30;;;;;;;;;48.00;40.75;;;;;32.17;32.61;99025.19;5071426;28;8827;-72
2022/06/25 07:19:00;;;;;;;;;16.50;15.50;;;;;32.27;32.90;99024.28;5104031;28;8874;-73
2022/06/25 07:21:30;;;;;;;;;19.25;17.25;;;;;32.38;31.91;99018.66;5071243;28;8827;-71
2022/06/25 07:23:59;;;;;;;;;21.75;21.75;;;;;32.52;30.96;99020.00;5070357;28;8873;-71
2022/06/25 07:26:27;;;;;;;;;16.75;16.75;;;;;32.59;30.54;99019.25;5071150;28;8850;-74
2022/06/25 07:28:56;;;;;;;;;16.00;16.00;;;;;32.62;30.90;99021.63;5046899;28;8859;-71
2022/06/25 07:31:24;;;;;;;;;15.50;14.75;;;;;32.74;30.40;99037.56;5072908;28;8849;-70
2022/06/25 07:33:53;;;;;;;;;25.25;24.25;;;;;32.78;29.39;99036.25;5087124;28;8972;-73
2022/06/25 07:36:21;;;;;;;;;12.25;11.50;;;;;32.75;29.06;99025.78;5090764;28;8989;-71
2022/06/25 07:38:52;;;;;;;;;17.25;15.50;;;;;32.85;28.64;99023.84;5080927;28;8906;-70
2022/06/25 07:41:20;;;;;;;;;18.75;18.75;;;;;32.84;28.62;99027.56;5075439;28;8875;-71
2022/06/25 07:43:48;;;;;;;;;20.75;19.50;;;;;33.00;28.57;99030.38;5060842;28;8835;-71
2022/06/25 07:46:17;;;;;;;;;18.75;18.00;;;;;33.17;28.63;99038.63;5086831;28;8861;-72
2022/06/25 07:48:46;;;;;;;;;17.00;17.00;;;;;33.29;28.83;99040.06;5070865;28;8866;-73
2022/06/25 07:54:02;;;;;;;;;15.00;14.50;;;;;33.42;28.49;99047.72;5070457;28;8876;-77
2022/06/25 07:56:31;;;;;;;;;15.00;14.00;;;;;33.48;29.01;99051.66;5072787;28;8879;-78
2022/06/25 07:59:00;;;;;;;;;14.50;13.75;;;;;33.65;28.44;99048.09;5087011;28;8866;-78
2022/06/25 08:01:29;;;;;;;;;16.00;15.75;;;;;33.74;28.90;99044.41;5074952;28;8846;-78
2022/06/25 08:03:58;;;;;;;;;16.50;13.50;;;;;33.84;28.80;99046.97;5075966;28;8867;-78
2022/06/25 08:06:26;;;;;;;;;15.25;15.25;;;;;33.96;29.61;99051.06;5078716;28;8981;-77
2022/06/25 08:08:55;;;;;;;;;15.75;14.75;;;;;33.89;30.09;99052.72;5078793;28;9627;-77
2022/06/25 08:11:25;;;;;;;;;21.50;20.50;;;;;33.64;30.14;99050.94;5087530;28;8842;-78
2022/06/25 08:13:53;;;;;;;;;16.00;16.00;;;;;33.39;29.57;99048.91;5076498;28;8859;-70
2022/06/25 08:16:25;;;;;;;;;20.25;18.00;;;;;32.61;29.90;99044.22;5088727;28;8847;-73
2022/06/25 08:18:53;;;;;;;;;16.50;15.75;;;;;32.64;30.04;99037.66;5079018;28;8862;-75
2022/06/25 08:21:22;;;;;;;;;17.25;16.75;;;;;32.92;29.88;99038.41;5070036;28;8952;-72
2022/06/25 08:23:51;;;;;;;;;17.75;17.50;;;;;33.16;29.88;99039.66;5069439;28;8854;-74
2022/06/25 08:26:20;;;;;;;;;15.25;14.00;;;;;33.06;29.19;99037.00;5072009;28;8947;-70
2022/06/25 08:28:50;;;;;;;;;15.00;15.00;;;;;32.47;30.54;99035.78;5079135;28;8989;-73
2022/06/25 08:31:18;;;;;;;;;17.50;16.75;;;;;32.23;30.54;99045.31;5069339;28;8870;-69
2022/06/25 08:33:47;;;;;;;;;20.00;20.00;;;;;32.35;30.87;99043.28;5086291;28;8978;-71
2022/06/25 08:36:15;;;;;;;;;21.25;21.00;;;;;32.60;31.26;99042.53;5072775;28;8870;-73
2022/06/25 08:38:44;;;;;;;;;23.00;21.50;;;;;32.80;31.23;99043.22;5069836;28;9638;-70
2022/06/25 08:41:13;;;;;;;;;16.25;15.75;;;;;32.97;29.69;99038.81;5089519;28;8863;-70
2022/06/25 08:43:42;;;;;;;;;15.50;15.50;;;;;33.11;29.79;99036.56;5080067;28;9100;-72
2022/06/25 08:46:12;;;;;;;;;15.75;15.75;;;;;32.69;30.21;99045.31;5069294;28;8838;-76
2022/06/25 08:48:43;;;;;;;;;16.00;16.00;;;;;32.85;30.21;99033.78;5069044;28;8893;-72
2022/06/25 08:51:13;;;;;;;;;15.75;15.75;;;;;32.92;30.17;99033.00;5069557;28;8841;-75
2022/06/25 08:53:42;;;;;;;;;16.75;16.75;;;;;32.52;30.62;99020.81;5094502;28;8883;-76
2022/06/25 08:56:11;;;;;;;;;20.00;17.50;;;;;32.15;31.48;99029.88;5035013;28;8893;-78
2022/06/25 08:58:43;;;;;;;;;18.25;16.75;;;;;32.41;31.30;99023.75;5086522;28;8884;-73
2022/06/25 09:01:13;;;;;;;;;15.25;15.25;;;;;32.11;31.84;99017.72;5069973;28;8971;-74
2022/06/25 09:03:44;;;;;;;;;17.25;15.75;;;;;32.03;32.00;99023.88;5068185;28;8876;-74
2022/06/25 09:06:14;;;;;;;;;13.00;13.00;;;;;32.32;31.43;99027.38;5068879;28;8901;-74
2022/06/25 09:08:44;;;;;;;;;18.50;16.75;;;;;32.58;31.24;99025.63;5079404;28;8862;-73
2022/06/25 09:11:12;;;;;;;;;18.00;18.00;;;;;32.77;31.28;99024.63;5073955;28;8862;-74
2022/06/25 09:13:41;;;;;;;;;17.00;16.75;;;;;32.61;31.37;99014.53;5086023;28;8867;-75
2022/06/25 09:16:24;;;;;;;;;17.75;15.75;;;;;32.80;31.16;99018.91;5087235;28;8859;-74
2022/06/25 09:18:52;;;;;;;;;16.75;16.50;;;;;33.02;29.80;99012.16;5087934;28;9584;-75
2022/06/25 09:21:21;;;;;;;;;18.50;17.50;;;;;33.20;29.90;99011.28;5086070;28;8854;-73
2022/06/25 09:24:00;;;;;;;;;17.50;17.00;;;;;33.11;29.73;99004.13;5081505;28;8877;-73
2022/06/25 09:26:29;;;;;;;;;20.25;19.75;;;;;33.01;30.43;99010.47;5089410;28;8962;-74
2022/06/25 09:29:01;;;;;;;;;14.75;14.75;;;;;33.22;30.12;99012.81;5073333;28;8981;-76
2022/06/25 09:31:39;;;;;;;;;14.25;14.25;;;;;33.42;29.34;99004.47;5068274;28;8862;-75
2022/06/25 09:34:09;;;;;;;;;15.75;14.25;;;;;33.58;28.48;99006.44;5076275;28;8941;-79
2022/06/25 09:36:38;;;;;;;;;13.25;13.25;;;;;33.62;28.88;99005.09;5084600;28;9014;-80
2022/06/25 09:39:06;;;;;;;;;14.25;14.25;;;;;33.71;28.39;99006.03;5086658;28;8898;-78
2022/06/25 09:41:53;;;;;;;;;18.25;18.25;;;;;33.30;29.94;99003.06;5054539;28;8899;-76
2022/06/25 09:44:22;;;;;;;;;17.75;17.50;;;;;32.47;31.64;98995.31;5104386;28;8844;-76
2022/06/25 09:47:01;;;;;;;;;17.50;14.75;;;;;32.63;30.11;98990.09;5089074;28;8851;-77
2022/06/25 09:49:30;;;;;;;;;15.25;14.50;;;;;32.92;30.08;98992.50;5089092;28;9021;-76
2022/06/25 09:51:59;;;;;;;;;15.75;15.00;;;;;33.14;29.66;98984.88;5101360;28;8856;-76
2022/06/25 09:54:28;;;;;;;;;16.00;15.75;;;;;33.28;28.88;98969.97;5049472;28;8851;-75
2022/06/25 09:56:58;;;;;;;;;16.75;15.75;;;;;32.54;29.34;98972.09;5066515;28;8843;-75
2022/06/25 09:59:30;;;;;;;;;14.50;13.25;;;;;32.53;29.35;98975.78;5069394;28;8874;-75
2022/06/25 10:02:04;;;;;;;;;15.75;15.25;;;;;32.86;29.28;98973.38;5067382;28;9612;-75
2022/06/25 10:04:33;;;;;;;;;14.40;14.00;;;;;33.27;29.23;98960.13;5068493;28;8854;-75
2022/06/25 10:07:08;;;;;;;;;14.25;13.00;;;;;33.63;28.36;98974.34;5067417;28;8919;-75
2022/06/25 10:09:41;;;;;;;;;19.50;18.25;;;;;34.03;27.95;98966.53;5068156;28;8834;-76
2022/06/25 10:12:10;;;;;;;;;14.75;14.00;;;;;34.17;27.11;98955.09;5068575;28;8850;-76
2022/06/25 10:14:40;;;;;;;;;13.25;12.50;;;;;34.38;26.48;98957.31;5068262;28;8838;-74
2022/06/25 10:17:11;;;;;;;;;12.25;11.00;;;;;34.47;26.73;98972.56;5065849;28;9545;-75
2022/06/25 10:19:40;;;;;;;;;13.75;13.75;;;;;34.71;27.02;98976.31;5067759;28;9000;-76
2022/06/25 10:22:09;;;;;;;;;14.50;12.50;;;;;34.95;26.71;98976.31;5068412;28;8858;-74
2022/06/25 10:24:38;;;;;;;;;9.75;9.75;;;;;35.17;26.38;98978.47;5032702;28;8846;-77
2022/06/25 10:27:07;;;;;;;;;13.00;13.00;;;;;35.28;26.58;98972.69;5079151;28;9632;-76
2022/06/25 10:29:52;;;;;;;;;13.00;13.00;;;;;35.48;25.93;98975.84;5121123;27;9614;-75
2022/06/25 10:32:23;;;;;;;;;12.50;12.50;;;;;35.66;25.26;98970.19;5086276;28;8872;-75
2022/06/25 10:34:55;;;;;;;;;12.25;12.25;;;;;35.85;24.96;98967.06;5083519;28;8862;-75
2022/06/25 10:37:25;;;;;;;;;14.00;13.75;;;;;35.95;25.01;98966.81;5033031;28;8936;-76
2022/06/25 10:39:54;;;;;;;;;16.50;14.50;;;;;36.02;25.39;98970.50;5065222;28;8885;-76
2022/06/25 10:45:50;;;;;;;;;12.00;10.25;;;;;36.13;24.38;98965.69;5064457;28;9666;-74
2022/06/25 10:48:22;;;;;;;;;11.25;11.25;;;;;36.03;24.65;98964.06;5065280;28;8876;-75
2022/06/25 10:50:53;;;;;;;;;14.50;14.50;;;;;35.81;24.59;98970.31;5065126;28;8864;-76
2022/06/25 10:53:26;;;;;;;;;15.25;14.50;;;;;35.85;25.24;98968.94;5065153;28;8892;-76
2022/06/25 10:56:16;;;;;;;;;16.50;15.75;;;;;35.05;27.61;98969.81;5065101;28;8941;-75
2022/06/25 10:58:47;;;;;;;;;20.75;20.00;;;;;34.83;29.16;98964.09;5005364;28;8900;-76
2022/06/25 11:01:31;;;;;;;;;13.50;13.50;;;;;35.12;28.19;98968.13;5005879;28;8948;-75
2022/06/25 11:04:07;;;;;;;;;19.75;17.50;;;;;35.30;28.12;98951.69;4985934;28;8969;-75
2022/06/25 11:06:40;;;;;;;;;18.00;17.00;;;;;35.57;28.24;98961.22;4969371;28;8978;-76
2022/06/25 11:09:17;;;;;;;;;18.50;17.75;;;;;35.81;29.05;98960.28;4985940;28;8881;-74
2022/06/25 11:11:48;;;;;;;;;15.75;13.75;;;;;35.90;27.84;98971.97;5001089;28;8977;-76
2022/06/25 11:14:22;;;;;;;;;17.50;17.50;;;;;35.26;28.18;98964.72;5024066;28;8858;-75
2022/06/25 11:16:52;;;;;;;;;22.00;22.00;;;;;34.43;29.53;98973.06;5008895;28;8943;-75
2022/06/25 11:19:23;;;;;;;;;15.75;14.75;;;;;34.80;28.92;98963.59;5009974;28;8870;-75
2022/06/25 11:21:52;;;;;;;;;15.00;15.00;;;;;35.05;28.73;98958.97;5005383;28;8854;-75
2022/06/25 11:24:23;;;;;;;;;18.25;18.00;;;;;35.28;29.09;98961.84;5005109;28;8854;-76
2022/06/25 11:29:41;;;;;;;;;17.25;17.00;;;;;35.73;27.80;98933.22;4986355;28;8861;-76
2022/06/25 11:32:10;;;;;;;;;17.50;16.75;;;;;35.69;27.43;98924.59;5008736;28;9543;-75
2022/06/25 11:34:42;;;;;;;;;17.50;16.25;;;;;36.00;27.18;98922.88;5008661;28;8905;-75
2022/06/25 11:37:12;;;;;;;;;19.50;17.50;;;;;35.76;27.15;98927.41;5082751;28;8889;-76
2022/06/25 11:39:41;;;;;;;;;12.00;11.00;;;;;36.03;26.84;98919.78;5087727;28;8860;-75
2022/06/25 11:42:11;;;;;;;;;18.00;17.25;;;;;36.28;26.60;98920.50;5087489;28;8851;-75
2022/06/25 11:44:44;;;;;;;;;13.25;12.25;;;;;36.34;26.19;98914.31;5087709;28;8936;-77
2022/06/25 11:47:15;;;;;;;;;15.75;15.50;;;;;36.40;25.97;98918.19;5070287;28;8977;-76
2022/06/25 11:49:45;;;;;;;;;11.25;11.25;;;;;36.52;26.31;98919.41;5052470;28;8881;-75
2022/06/25 11:52:15;;;;;;;;;17.50;15.25;;;;;36.46;26.01;98917.44;5035659;28;8854;-74
2022/06/25 11:54:45;;;;;;;;;12.00;12.00;;;;;36.60;26.19;98913.94;5089742;28;8861;-74
2022/06/25 11:57:18;;;;;;;;;13.50;13.50;;;;;36.74;25.72;98908.75;5091064;28;8848;-74